Time;durP1;ratioP1;P1;durP2;ratioP2;P2;SDS_P1;SDS_P2;PMS_P1;PMS_P2;Temp;Humidity;BMP_temperature;BMP_pressure;BME280_temperature;BME280_humidity;BME280_pressure;Samples;Min_cycle;Max_cycle;Signal;HPM_P1;HPM_P2
2023/04/10 00:00:30;;;;;;;;;;;6.70;75.80;;;;;;4949200;28;19934;-69
2023/04/10 00:02:58;;;;;;;;;;;6.70;75.60;;;;;;4949178;28;20496;-70
2023/04/10 00:05:25;;;;;;;;;;;6.70;75.60;;;;;;4964390;28;19934;-70
2023/04/10 00:07:52;;;;;;;;;;;6.70;75.80;;;;;;4948621;28;19927;-70
2023/04/10 00:10:19;;;;;;;;;;;6.60;75.90;;;;;;4951679;28;20020;-70
2023/04/10 00:12:47;;;;;;;;;;;6.50;76.20;;;;;;4947579;28;19926;-69
2023/04/10 00:15:13;;;;;;;;;;;6.50;76.40;;;;;;4947891;28;19934;-70
2023/04/10 00:17:40;;;;;;;;;;;6.50;76.40;;;;;;4949614;28;19930;-69
2023/04/10 00:20:08;;;;;;;;;;;6.40;76.40;;;;;;4949835;28;19934;-69
2023/04/10 00:22:35;;;;;;;;;;;6.40;76.50;;;;;;4948355;28;19933;-70
2023/04/10 00:25:01;;;;;;;;;;;6.40;76.40;;;;;;4949915;28;20393;-69
2023/04/10 00:27:28;;;;;;;;;;;6.40;76.40;;;;;;4951302;28;19957;-69
2023/04/10 00:29:56;;;;;;;;;;;6.40;76.40;;;;;;4953134;28;20024;-69
2023/04/10 00:32:23;;;;;;;;;;;6.30;76.40;;;;;;4966291;28;19937;-69
2023/04/10 00:34:50;;;;;;;;;;;6.30;76.50;;;;;;4953319;28;19927;-68
2023/04/10 00:37:17;;;;;;;;;;;6.20;76.50;;;;;;4951770;28;20032;-69
2023/04/10 00:39:44;;;;;;;;;;;6.20;76.60;;;;;;4952708;28;19934;-69
2023/04/10 00:42:11;;;;;;;;;;;6.10;76.60;;;;;;4952303;28;19935;-69
2023/04/10 00:44:38;;;;;;;;;;;6.20;76.60;;;;;;4952500;28;20025;-70
2023/04/10 00:47:06;;;;;;;;;;;6.10;76.50;;;;;;4950641;28;19926;-69
2023/04/10 00:49:33;;;;;;;;;;;6.10;76.60;;;;;;4951850;28;20309;-69
2023/04/10 00:52:00;;;;;;;;;;;6.00;76.70;;;;;;4952077;28;19931;-68
2023/04/10 00:54:27;;;;;;;;;;;6.00;76.80;;;;;;4951085;28;20029;-68
2023/04/10 00:56:53;;;;;;;;;;;6.00;76.80;;;;;;4965502;28;19933;-69
2023/04/10 00:59:20;;;;;;;;;;;6.00;76.80;;;;;;4952532;28;20045;-68
2023/04/10 01:01:47;;;;;;;;;;;5.90;76.80;;;;;;4950574;28;19942;-69
2023/04/10 01:04:16;;;;;;;;;;;5.90;77.10;;;;;;4951050;28;19926;-69
2023/04/10 01:06:51;;;;;;;;;;;5.90;77.10;;;;;;4951228;28;19927;-70
2023/04/10 01:09:22;;;;;;;;;;;5.90;77.10;;;;;;4950801;28;19998;-69
2023/04/10 01:11:51;;;;;;;;;;;5.80;77.10;;;;;;4951625;28;20281;-69
2023/04/10 01:14:23;;;;;;;;;;;5.90;77.10;;;;;;4947713;28;19934;-68
2023/04/10 01:16:52;;;;;;;;;;;5.80;77.10;;;;;;4951173;28;20033;-69
2023/04/10 01:19:25;;;;;;;;;;;5.80;77.10;;;;;;4950856;28;20056;-70
2023/04/10 01:21:53;;;;;;;;;;;5.70;77.20;;;;;;4951481;28;19970;-70
2023/04/10 01:24:24;;;;;;;;;;;5.70;77.30;;;;;;4950524;28;19934;-70
2023/04/10 01:26:56;;;;;;;;;;;5.70;77.30;;;;;;4951201;28;20096;-69
2023/04/10 01:29:26;;;;;;;;;;;5.70;77.30;;;;;;4949607;28;19962;-70
2023/04/10 01:31:57;;;;;;;;;;;5.70;77.30;;;;;;4952269;28;19933;-68
2023/04/10 01:34:25;;;;;;;;;;;5.70;77.30;;;;;;4950686;28;20467;-69
2023/04/10 01:36:53;;;;;;;;;;;5.70;77.60;;;;;;4950775;28;19982;-69
2023/04/10 01:39:21;;;;;;;;;;;5.60;77.70;;;;;;4960483;28;19945;-69
2023/04/10 01:41:50;;;;;;;;;;;5.70;77.70;;;;;;4959023;28;20308;-69
2023/04/10 01:44:18;;;;;;;;;;;5.70;77.70;;;;;;4966200;28;19969;-68
2023/04/10 01:46:46;;;;;;;;;;;5.60;77.70;;;;;;4960089;28;19926;-68
2023/04/10 01:49:14;;;;;;;;;;;5.60;77.80;;;;;;4949043;28;19960;-68
2023/04/10 01:51:41;;;;;;;;;;;5.50;77.80;;;;;;4950935;28;19966;-68
2023/04/10 01:54:10;;;;;;;;;;;5.50;77.90;;;;;;4948211;28;19989;-69
2023/04/10 01:56:38;;;;;;;;;;;5.40;78.00;;;;;;4950771;28;20011;-69
2023/04/10 01:59:05;;;;;;;;;;;5.40;78.10;;;;;;4951085;28;20060;-69
2023/04/10 02:01:32;;;;;;;;;;;5.40;78.20;;;;;;4965539;28;20021;-68
2023/04/10 02:04:01;;;;;;;;;;;5.40;78.20;;;;;;4950764;28;19972;-69
2023/04/10 02:06:34;;;;;;;;;;;5.40;78.10;;;;;;4951036;28;19930;-68
2023/04/10 02:09:08;;;;;;;;;;;5.40;78.10;;;;;;4945229;28;20025;-68
2023/04/10 02:11:38;;;;;;;;;;;5.40;78.10;;;;;;4950661;28;19930;-69
2023/04/10 02:14:07;;;;;;;;;;;5.40;78.10;;;;;;4959987;28;19990;-68
2023/04/10 02:16:36;;;;;;;;;;;5.40;78.00;;;;;;4950827;28;19930;-68
2023/04/10 02:19:05;;;;;;;;;;;5.40;78.10;;;;;;4964423;28;19927;-69
2023/04/10 02:21:33;;;;;;;;;;;5.40;78.10;;;;;;4950106;28;19953;-69
2023/04/10 02:24:00;;;;;;;;;;;5.30;78.00;;;;;;4948877;28;19927;-69
2023/04/10 02:26:27;;;;;;;;;;;5.30;78.00;;;;;;4952105;28;19931;-70
2023/04/10 02:28:54;;;;;;;;;;;5.30;78.00;;;;;;4950276;28;19953;-67
2023/04/10 02:31:21;;;;;;;;;;;5.20;78.00;;;;;;4958963;28;19930;-69
2023/04/10 02:33:48;;;;;;;;;;;5.20;78.10;;;;;;4949195;28;19934;-68
2023/04/10 02:36:16;;;;;;;;;;;5.20;78.10;;;;;;4949814;28;20025;-69
2023/04/10 02:38:43;;;;;;;;;;;5.20;78.30;;;;;;4950679;28;19930;-68
2023/04/10 02:41:11;;;;;;;;;;;5.20;78.40;;;;;;4948811;28;19949;-69
2023/04/10 02:43:39;;;;;;;;;;;5.20;78.30;;;;;;4948154;28;19934;-69
2023/04/10 02:46:06;;;;;;;;;;;5.20;78.20;;;;;;4965479;28;19935;-68
2023/04/10 02:48:38;;;;;;;;;;;5.10;78.30;;;;;;4964559;28;19938;-69
2023/04/10 02:51:05;;;;;;;;;;;5.00;78.60;;;;;;4960315;28;19933;-68
2023/04/10 02:53:34;;;;;;;;;;;5.00;78.70;;;;;;4963215;28;19935;-70
2023/04/10 02:56:01;;;;;;;;;;;5.00;78.50;;;;;;4949271;28;19927;-68
2023/04/10 02:58:29;;;;;;;;;;;5.00;78.40;;;;;;4943718;28;19941;-68
2023/04/10 03:00:57;;;;;;;;;;;5.00;78.40;;;;;;4962955;28;20042;-69
2023/04/10 03:03:38;;;;;;;;;;;5.00;78.60;;;;;;4948348;28;20388;-69
2023/04/10 03:06:06;;;;;;;;;;;4.90;78.80;;;;;;4962064;28;19949;-69
2023/04/10 03:08:35;;;;;;;;;;;4.90;78.70;;;;;;4945244;28;19934;-69
2023/04/10 03:11:01;;;;;;;;;;;4.90;78.80;;;;;;4946833;28;19952;-68
2023/04/10 03:13:28;;;;;;;;;;;4.80;78.90;;;;;;4944189;28;19930;-68
2023/04/10 03:15:55;;;;;;;;;;;4.80;79.10;;;;;;4958784;28;19931;-74
2023/04/10 03:18:22;;;;;;;;;;;4.90;79.00;;;;;;4961676;28;19930;-74
2023/04/10 03:20:52;;;;;;;;;;;4.90;79.10;;;;;;4961569;28;20389;-73
2023/04/10 03:23:20;;;;;;;;;;;4.90;78.90;;;;;;4943429;28;20251;-75
2023/04/10 03:25:52;;;;;;;;;;;4.80;79.10;;;;;;4961552;28;20029;-73
2023/04/10 03:28:20;;;;;;;;;;;4.80;79.10;;;;;;4941587;28;20436;-74
2023/04/10 03:30:47;;;;;;;;;;;4.80;79.10;;;;;;4944115;28;19939;-71
2023/04/10 03:33:14;;;;;;;;;;;4.80;79.20;;;;;;4962078;28;20403;-74
2023/04/10 03:35:41;;;;;;;;;;;4.80;79.20;;;;;;4957551;28;20448;-73
2023/04/10 03:38:08;;;;;;;;;;;4.80;79.30;;;;;;4946283;28;20291;-74
2023/04/10 03:40:36;;;;;;;;;;;4.80;79.20;;;;;;4947690;28;19927;-76
2023/04/10 03:43:06;;;;;;;;;;;4.80;79.20;;;;;;4939602;28;19970;-72
2023/04/10 03:45:34;;;;;;;;;;;4.80;79.10;;;;;;4947321;28;19930;-72
2023/04/10 03:48:01;;;;;;;;;;;4.80;79.00;;;;;;4946533;28;19934;-72
2023/04/10 03:50:37;;;;;;;;;;;4.80;79.00;;;;;;4947668;28;19927;-74
2023/04/10 03:53:05;;;;;;;;;;;4.70;79.10;;;;;;4961594;28;20016;-72
2023/04/10 03:55:32;;;;;;;;;;;4.70;79.10;;;;;;4962553;28;19926;-73
2023/04/10 03:57:59;;;;;;;;;;;4.70;79.10;;;;;;4945780;28;20385;-73
2023/04/10 04:00:28;;;;;;;;;;;4.70;79.10;;;;;;4946565;28;20338;-74
2023/04/10 04:03:03;;;;;;;;;;;4.70;79.10;;;;;;4964692;28;19926;-73
2023/04/10 04:06:02;;;;;;;;;;;4.60;79.20;;;;;;4934290;28;20013;-72
2023/04/10 04:08:48;;;;;;;;;;;4.50;79.30;;;;;;4951296;28;19933;-72
2023/04/10 04:11:39;;;;;;;;;;;4.50;79.50;;;;;;4952268;28;19931;-73
2023/04/10 04:14:26;;;;;;;;;;;4.60;79.50;;;;;;4951482;28;20480;-73
2023/04/10 04:17:02;;;;;;;;;;;4.50;79.30;;;;;;4951259;28;19965;-75
2023/04/10 04:19:33;;;;;;;;;;;4.40;79.60;;;;;;4968054;28;20108;-73
2023/04/10 04:22:12;;;;;;;;;;;4.40;79.70;;;;;;4952124;28;19927;-72
2023/04/10 04:24:57;;;;;;;;;;;4.50;79.70;;;;;;4953162;28;19937;-74
2023/04/10 04:27:43;;;;;;;;;;;4.50;79.60;;;;;;4951941;28;20514;-73
2023/04/10 04:30:29;;;;;;;;;;;4.50;79.50;;;;;;4948094;28;20025;-71
2023/04/10 04:33:23;;;;;;;;;;;4.50;79.60;;;;;;4947196;28;19950;-73
2023/04/10 04:36:03;;;;;;;;;;;4.50;79.70;;;;;;4949875;28;20012;-73
2023/04/10 04:39:05;;;;;;;;;;;4.40;79.70;;;;;;4949380;28;19930;-72
2023/04/10 04:41:43;;;;;;;;;;;4.50;79.50;;;;;;4948776;28;19937;-73
2023/04/10 04:44:36;;;;;;;;;;;4.50;79.40;;;;;;4948762;28;19931;-73
2023/04/10 04:47:23;;;;;;;;;;;4.60;79.40;;;;;;4951259;28;19942;-72
2023/04/10 04:50:17;;;;;;;;;;;4.50;79.40;;;;;;4950049;28;19937;-72
2023/04/10 04:53:13;;;;;;;;;;;4.50;79.40;;;;;;4945166;28;19966;-71
2023/04/10 04:55:54;;;;;;;;;;;4.50;79.50;;;;;;4952064;28;19932;-73
2023/04/10 04:58:46;;;;;;;;;;;4.50;79.60;;;;;;4951388;28;19934;-72
2023/04/10 05:01:17;;;;;;;;;;;4.50;79.60;;;;;;4952253;28;20025;-72
2023/04/10 05:03:52;;;;;;;;;;;4.50;79.70;;;;;;4961962;28;19926;-72
2023/04/10 05:06:36;;;;;;;;;;;4.50;79.70;;;;;;4949264;28;19957;-72
2023/04/10 05:09:33;;;;;;;;;;;4.50;79.80;;;;;;4927901;28;20360;-72
2023/04/10 05:12:11;;;;;;;;;;;4.50;79.90;;;;;;4964392;28;20297;-72
2023/04/10 05:14:55;;;;;;;;;;;4.40;80.10;;;;;;4946967;28;19926;-72
2023/04/10 05:17:32;;;;;;;;;;;4.50;80.20;;;;;;4952903;28;19966;-72
2023/04/10 05:20:34;;;;;;;;;;;4.50;80.00;;;;;;4950445;28;19930;-72
2023/04/10 05:23:19;;;;;;;;;;;4.50;79.90;;;;;;4949298;28;19931;-73
2023/04/10 05:26:08;;;;;;;;;;;4.60;79.90;;;;;;4949177;28;19974;-73
2023/04/10 05:29:01;;;;;;;;;;;4.60;80.20;;;;;;4948359;28;19934;-73
2023/04/10 05:31:30;;;;;;;;;;;4.60;80.20;;;;;;4951792;28;19937;-72
2023/04/10 05:34:20;;;;;;;;;;;4.70;80.00;;;;;;4950077;28;20029;-73
2023/04/10 05:37:13;;;;;;;;;;;4.70;80.10;;;;;;4949312;28;20392;-72
2023/04/10 05:40:02;;;;;;;;;;;4.80;79.80;;;;;;4944038;28;19938;-72
2023/04/10 05:42:49;;;;;;;;;;;4.80;79.60;;;;;;4962217;28;19935;-71
2023/04/10 05:45:33;;;;;;;;;;;4.80;79.80;;;;;;4949299;28;19926;-72
2023/04/10 05:48:17;;;;;;;;;;;4.80;80.00;;;;;;4964004;28;21168;-72
2023/04/10 05:51:02;;;;;;;;;;;4.90;80.20;;;;;;4964390;28;19927;-73
2023/04/10 05:53:52;;;;;;;;;;;4.90;80.10;;;;;;4945964;28;19930;-73
2023/04/10 05:56:33;;;;;;;;;;;4.90;80.30;;;;;;4950696;28;19927;-73
2023/04/10 05:59:18;;;;;;;;;;;4.90;80.40;;;;;;4952182;28;19934;-72
2023/04/10 06:02:02;;;;;;;;;;;4.90;80.10;;;;;;4960114;28;19926;-72
2023/04/10 06:04:29;;;;;;;;;;;4.90;80.10;;;;;;4952129;28;19973;-72
2023/04/10 06:06:58;;;;;;;;;;;4.90;80.00;;;;;;4966619;28;20014;-72
2023/04/10 06:09:25;;;;;;;;;;;5.00;80.40;;;;;;4949259;28;19934;-71
2023/04/10 06:11:53;;;;;;;;;;;5.00;80.40;;;;;;4949861;28;19953;-72
2023/04/10 06:14:22;;;;;;;;;;;5.20;80.60;;;;;;4947864;28;19930;-71
2023/04/10 06:16:49;;;;;;;;;;;5.20;80.30;;;;;;4947473;28;20025;-71
2023/04/10 06:19:16;;;;;;;;;;;5.30;80.40;;;;;;4964639;28;19933;-71
2023/04/10 06:21:43;;;;;;;;;;;5.40;79.80;;;;;;4951024;28;19937;-71
2023/04/10 06:24:12;;;;;;;;;;;5.60;80.30;;;;;;4963201;28;19933;-72
2023/04/10 06:26:39;;;;;;;;;;;5.70;80.40;;;;;;4948723;28;19930;-71
2023/04/10 06:29:07;;;;;;;;;;;5.70;79.40;;;;;;4947622;28;20028;-71
2023/04/10 06:31:34;;;;;;;;;;;5.80;79.50;;;;;;4945050;28;20038;-71
2023/04/10 06:34:01;;;;;;;;;;;5.80;79.00;;;;;;4958575;28;19930;-71
2023/04/10 06:36:28;;;;;;;;;;;5.90;79.40;;;;;;4949312;28;20312;-71
2023/04/10 06:39:01;;;;;;;;;;;6.00;79.80;;;;;;4963830;28;20023;-71
2023/04/10 06:41:28;;;;;;;;;;;6.20;79.60;;;;;;4947997;28;19953;-70
2023/04/10 06:44:01;;;;;;;;;;;6.30;79.50;;;;;;4947549;28;19926;-70
2023/04/10 06:46:29;;;;;;;;;;;6.40;79.20;;;;;;4951587;28;19949;-70
2023/04/10 06:48:56;;;;;;;;;;;6.60;79.00;;;;;;4949797;28;19950;-72
2023/04/10 06:51:23;;;;;;;;;;;6.70;79.00;;;;;;4948802;28;20013;-70
2023/04/10 06:53:49;;;;;;;;;;;6.90;78.80;;;;;;4948832;28;19930;-71
2023/04/10 06:56:16;;;;;;;;;;;7.00;78.80;;;;;;4949851;28;19956;-70
2023/04/10 06:58:43;;;;;;;;;;;7.20;78.40;;;;;;4949122;28;19934;-70
2023/04/10 07:01:09;;;;;;;;;;;7.30;78.60;;;;;;4949601;28;19934;-69
2023/04/10 07:03:38;;;;;;;;;;;7.40;78.30;;;;;;4949443;28;19926;-70
2023/04/10 07:06:05;;;;;;;;;;;7.50;78.00;;;;;;4949953;29;20013;-69
2023/04/10 07:08:32;;;;;;;;;;;7.70;77.90;;;;;;4948492;28;19936;-70
2023/04/10 07:10:58;;;;;;;;;;;7.70;78.10;;;;;;4950770;28;19927;-71
2023/04/10 07:13:25;;;;;;;;;;;7.80;77.50;;;;;;4950296;28;19966;-70
2023/04/10 07:15:52;;;;;;;;;;;7.90;77.30;;;;;;4949670;28;19930;-71
2023/04/10 07:18:18;;;;;;;;;;;8.00;77.10;;;;;;4949664;28;20051;-71
2023/04/10 07:20:47;;;;;;;;;;;8.10;76.90;;;;;;4949962;28;19933;-71
2023/04/10 07:23:14;;;;;;;;;;;8.20;76.40;;;;;;4949526;28;19930;-71
2023/04/10 07:25:41;;;;;;;;;;;8.20;76.50;;;;;;4950252;28;19941;-70
2023/04/10 07:28:08;;;;;;;;;;;8.30;76.10;;;;;;4949027;28;19927;-70
2023/04/10 07:30:35;;;;;;;;;;;8.40;75.70;;;;;;4950107;28;19926;-71
2023/04/10 07:33:02;;;;;;;;;;;8.50;75.60;;;;;;4948657;28;19958;-69
2023/04/10 07:35:28;;;;;;;;;;;8.70;74.90;;;;;;4950233;28;19996;-70
2023/04/10 07:37:57;;;;;;;;;;;8.90;74.70;;;;;;4952471;28;19930;-70
2023/04/10 07:40:23;;;;;;;;;;;9.00;74.30;;;;;;4954255;29;19958;-70
2023/04/10 07:42:50;;;;;;;;;;;9.20;73.90;;;;;;4963085;28;20286;-70
2023/04/10 07:45:17;;;;;;;;;;;9.40;73.20;;;;;;4953129;28;20301;-72
2023/04/10 07:47:44;;;;;;;;;;;9.60;73.40;;;;;;4951931;28;19934;-70
2023/04/10 07:50:11;;;;;;;;;;;9.70;72.30;;;;;;4954284;28;19930;-71
2023/04/10 07:52:37;;;;;;;;;;;9.90;71.50;;;;;;4952331;28;19926;-71
2023/04/10 07:55:06;;;;;;;;;;;10.00;71.10;;;;;;4953884;28;19930;-69
2023/04/10 07:57:33;;;;;;;;;;;10.20;71.20;;;;;;4953866;28;19927;-70
2023/04/10 08:00:00;;;;;;;;;;;10.30;71.20;;;;;;4952985;28;19938;-70
2023/04/10 08:02:26;;;;;;;;;;;10.40;70.80;;;;;;4953889;28;19941;-62
2023/04/10 08:04:53;;;;;;;;;;;10.60;70.60;;;;;;4952413;28;19930;-63
2023/04/10 08:07:20;;;;;;;;;;;10.70;70.00;;;;;;4952333;28;20191;-61
2023/04/10 08:09:47;;;;;;;;;;;10.80;69.40;;;;;;4951992;28;19954;-62
2023/04/10 08:12:16;;;;;;;;;;;11.00;68.70;;;;;;4954272;28;20009;-62
2023/04/10 08:14:44;;;;;;;;;;;11.20;67.80;;;;;;4952905;28;19942;-62
2023/04/10 08:17:13;;;;;;;;;;;11.30;68.20;;;;;;4952850;28;20009;-62
2023/04/10 08:19:40;;;;;;;;;;;11.40;68.00;;;;;;4951630;28;20028;-61
2023/04/10 08:22:07;;;;;;;;;;;11.60;67.30;;;;;;4954009;28;20445;-61
2023/04/10 08:24:34;;;;;;;;;;;11.70;66.70;;;;;;4953338;28;19936;-62
2023/04/10 08:27:01;;;;;;;;;;;11.90;66.00;;;;;;4965674;28;19993;-62
2023/04/10 08:29:29;;;;;;;;;;;12.00;65.60;;;;;;4950932;28;19953;-62
2023/04/10 08:31:59;;;;;;;;;;;12.10;65.30;;;;;;4950995;28;20441;-61
2023/04/10 08:34:26;;;;;;;;;;;12.20;65.10;;;;;;4952817;28;19973;-63
2023/04/10 08:36:53;;;;;;;;;;;12.30;65.00;;;;;;4952077;28;19962;-61
2023/04/10 08:39:20;;;;;;;;;;;12.50;64.50;;;;;;4952849;28;19926;-62
2023/04/10 08:41:47;;;;;;;;;;;12.60;63.60;;;;;;4951588;28;19930;-62
2023/04/10 08:44:16;;;;;;;;;;;12.60;63.00;;;;;;4950872;28;19956;-62
2023/04/10 08:46:45;;;;;;;;;;;12.70;63.20;;;;;;4949849;28;19937;-62
2023/04/10 08:49:17;;;;;;;;;;;12.90;62.90;;;;;;4950837;28;20403;-61
2023/04/10 08:51:46;;;;;;;;;;;13.10;63.10;;;;;;4952567;28;19926;-63
2023/04/10 08:54:18;;;;;;;;;;;13.20;62.50;;;;;;4952052;28;20024;-63
2023/04/10 08:56:47;;;;;;;;;;;13.30;61.70;;;;;;4953915;28;19987;-62
2023/04/10 08:59:13;;;;;;;;;;;13.50;61.20;;;;;;4950807;28;20408;-64
2023/04/10 09:01:40;;;;;;;;;;;13.60;60.40;;;;;;4951200;28;20009;-62
2023/04/10 09:04:10;;;;;;;;;;;13.70;60.80;;;;;;4951569;28;19935;-63
2023/04/10 09:06:37;;;;;;;;;;;13.80;59.20;;;;;;4951056;28;19949;-63
2023/04/10 09:09:05;;;;;;;;;;;13.90;59.00;;;;;;4952284;28;20002;-62
2023/04/10 09:11:59;;;;;;;;;;;14.00;59.30;;;;;;4948744;28;19937;-63
2023/04/10 09:14:26;;;;;;;;;;;14.20;58.70;;;;;;4951929;28;19936;-63
2023/04/10 09:16:54;;;;;;;;;;;14.30;58.50;;;;;;4952500;28;19938;-61
2023/04/10 09:19:30;;;;;;;;;;;14.40;57.90;;;;;;4950529;28;19934;-63
2023/04/10 09:21:57;;;;;;;;;;;14.50;57.70;;;;;;4952543;28;19926;-63
2023/04/10 09:24:24;;;;;;;;;;;14.60;57.60;;;;;;4950681;28;20377;-62
2023/04/10 09:26:51;;;;;;;;;;;14.70;57.30;;;;;;4950164;28;19956;-62
2023/04/10 09:29:18;;;;;;;;;;;14.70;57.70;;;;;;4950492;28;20001;-63
2023/04/10 09:31:45;;;;;;;;;;;14.90;57.10;;;;;;4951173;28;19927;-61
2023/04/10 09:34:13;;;;;;;;;;;14.90;55.60;;;;;;4951811;28;20386;-63
2023/04/10 09:36:41;;;;;;;;;;;15.00;55.70;;;;;;4950785;28;19930;-63
2023/04/10 09:39:09;;;;;;;;;;;15.10;56.40;;;;;;4950637;28;19927;-63
2023/04/10 09:41:47;;;;;;;;;;;15.20;54.50;;;;;;4950961;28;19926;-63
2023/04/10 09:44:14;;;;;;;;;;;15.30;54.80;;;;;;4950567;28;19930;-64
2023/04/10 09:46:46;;;;;;;;;;;15.40;54.30;;;;;;4952594;28;20025;-63
2023/04/10 09:49:13;;;;;;;;;;;15.50;54.10;;;;;;4951380;28;19958;-62
2023/04/10 09:51:41;;;;;;;;;;;15.60;53.70;;;;;;4950345;28;20301;-62
2023/04/10 09:54:08;;;;;;;;;;;15.60;53.30;;;;;;4951646;28;19934;-62
2023/04/10 09:56:36;;;;;;;;;;;15.80;52.80;;;;;;4951612;28;19933;-63
2023/04/10 09:59:04;;;;;;;;;;;15.80;52.10;;;;;;4948959;28;20033;-62
2023/04/10 10:01:33;;;;;;;;;;;15.90;51.60;;;;;;4949810;28;20021;-62
2023/04/10 10:04:01;;;;;;;;;;;15.90;51.30;;;;;;4951257;28;20006;-62
2023/04/10 10:06:30;;;;;;;;;;;16.00;51.50;;;;;;4948843;28;19989;-64
2023/04/10 10:09:01;;;;;;;;;;;16.10;51.50;;;;;;4952456;28;19926;-64
2023/04/10 10:11:28;;;;;;;;;;;16.20;51.60;;;;;;4952004;28;19934;-62
2023/04/10 10:13:56;;;;;;;;;;;16.30;51.70;;;;;;4949729;28;19989;-64
2023/04/10 10:16:29;;;;;;;;;;;16.40;51.20;;;;;;4948377;28;20009;-62
2023/04/10 10:19:01;;;;;;;;;;;16.40;50.50;;;;;;4950703;28;20000;-63
2023/04/10 10:21:28;;;;;;;;;;;16.60;49.70;;;;;;4951838;28;20464;-63
2023/04/10 10:23:56;;;;;;;;;;;16.60;49.20;;;;;;4949880;29;19930;-63
2023/04/10 10:26:25;;;;;;;;;;;16.60;48.90;;;;;;4951167;28;19985;-63
2023/04/10 10:28:52;;;;;;;;;;;16.60;47.90;;;;;;4949765;28;19937;-63
2023/04/10 10:31:19;;;;;;;;;;;16.70;48.00;;;;;;4950686;28;19998;-64
2023/04/10 10:33:46;;;;;;;;;;;16.70;48.20;;;;;;4948816;28;19926;-63
2023/04/10 10:36:15;;;;;;;;;;;16.70;48.30;;;;;;4950181;28;20190;-63
2023/04/10 10:38:47;;;;;;;;;;;16.70;48.40;;;;;;4949701;28;19989;-63
2023/04/10 10:41:18;;;;;;;;;;;16.80;48.20;;;;;;4950108;28;19934;-63
2023/04/10 10:43:50;;;;;;;;;;;16.80;48.10;;;;;;4950655;28;20041;-64
2023/04/10 10:46:20;;;;;;;;;;;16.80;47.70;;;;;;4950051;28;19933;-65
2023/04/10 10:48:55;;;;;;;;;;;16.90;47.70;;;;;;4948239;28;20017;-64
2023/04/10 10:51:22;;;;;;;;;;;16.90;48.00;;;;;;4949919;28;19965;-63
2023/04/10 10:53:48;;;;;;;;;;;17.00;47.70;;;;;;4950914;28;19931;-64
2023/04/10 10:56:34;;;;;;;;;;;17.10;47.90;;;;;;4950294;28;19941;-63
2023/04/10 10:59:03;;;;;;;;;;;17.10;48.60;;;;;;4949354;28;19934;-64
2023/04/10 11:01:29;;;;;;;;;;;17.20;48.30;;;;;;4949365;28;19933;-62
2023/04/10 11:03:58;;;;;;;;;;;17.20;48.00;;;;;;4947425;28;19927;-64
2023/04/10 11:06:40;;;;;;;;;;;17.20;47.10;;;;;;4947434;28;19926;-63
2023/04/10 11:09:07;;;;;;;;;;;17.30;47.00;;;;;;4949458;28;19949;-64
2023/04/10 11:11:54;;;;;;;;;;;17.30;47.30;;;;;;4948732;28;19934;-64
2023/04/10 11:14:22;;;;;;;;;;;17.30;47.30;;;;;;4945244;28;19930;-64
2023/04/10 11:16:49;;;;;;;;;;;17.40;49.10;;;;;;4949085;28;19930;-63
2023/04/10 11:19:18;;;;;;;;;;;17.50;48.30;;;;;;4948350;28;19978;-60
2023/04/10 11:22:06;;;;;;;;;;;17.50;47.60;;;;;;4946401;28;20279;-64
2023/04/10 11:24:52;;;;;;;;;;;17.60;46.80;;;;;;4949593;28;20025;-64
2023/04/10 11:27:38;;;;;;;;;;;17.60;47.00;;;;;;4947920;28;19941;-62
2023/04/10 11:30:24;;;;;;;;;;;17.60;47.50;;;;;;4950189;28;19931;-64
2023/04/10 11:32:51;;;;;;;;;;;17.60;48.00;;;;;;4949358;28;19949;-63
2023/04/10 11:35:19;;;;;;;;;;;17.60;48.00;;;;;;4947486;28;19961;-63
2023/04/10 11:37:46;;;;;;;;;;;17.60;47.50;;;;;;4949536;28;19927;-65
2023/04/10 11:40:13;;;;;;;;;;;17.60;46.80;;;;;;4947545;28;20018;-63
2023/04/10 11:42:40;;;;;;;;;;;17.60;47.40;;;;;;4948955;28;19934;-64
2023/04/10 11:45:21;;;;;;;;;;;17.60;47.10;;;;;;4950427;28;19927;-63
2023/04/10 11:47:52;;;;;;;;;;;17.60;46.40;;;;;;4946676;28;20021;-64
2023/04/10 11:50:19;;;;;;;;;;;17.60;45.80;;;;;;4949889;28;19926;-65
2023/04/10 11:52:46;;;;;;;;;;;17.60;46.00;;;;;;4949012;28;20354;-63
2023/04/10 11:55:13;;;;;;;;;;;17.60;48.10;;;;;;4947798;28;20105;-65
2023/04/10 11:57:40;;;;;;;;;;;17.60;46.30;;;;;;4949260;28;19926;-63
2023/04/10 12:00:09;;;;;;;;;;;17.60;46.60;;;;;;4944190;28;20386;-63
2023/04/10 12:02:50;;;;;;;;;;;17.60;46.50;;;;;;4951192;28;19949;-64
2023/04/10 12:05:18;;;;;;;;;;;17.70;46.80;;;;;;4948045;28;19982;-64
2023/04/10 12:07:44;;;;;;;;;;;17.70;49.20;;;;;;4947341;28;19944;-64
2023/04/10 12:10:11;;;;;;;;;;;17.70;46.90;;;;;;4948022;28;19927;-63
2023/04/10 12:12:38;;;;;;;;;;;17.60;46.30;;;;;;4942244;28;19933;-63
2023/04/10 12:15:20;;;;;;;;;;;17.60;47.30;;;;;;4962180;28;19958;-65
2023/04/10 12:17:47;;;;;;;;;;;17.60;46.20;;;;;;4950263;28;19926;-64
2023/04/10 12:20:15;;;;;;;;;;;17.60;46.10;;;;;;4950579;28;20374;-64
2023/04/10 12:22:44;;;;;;;;;;;17.60;46.50;;;;;;4949278;28;19956;-64
2023/04/10 12:25:12;;;;;;;;;;;17.60;46.10;;;;;;4950431;28;20007;-64
2023/04/10 12:27:39;;;;;;;;;;;17.60;46.30;;;;;;4961100;28;19927;-64
2023/04/10 12:30:07;;;;;;;;;;;17.70;47.50;;;;;;4951309;28;19927;-63
2023/04/10 12:32:34;;;;;;;;;;;17.70;46.10;;;;;;4952685;28;19926;-65
2023/04/10 12:35:01;;;;;;;;;;;17.70;46.00;;;;;;4950584;28;20049;-64
2023/04/10 12:37:42;;;;;;;;;;;17.80;47.40;;;;;;4951988;29;19930;-63
2023/04/10 12:40:12;;;;;;;;;;;17.70;46.80;;;;;;4949693;29;20017;-63
2023/04/10 12:42:40;;;;;;;;;;;17.70;46.40;;;;;;4952177;28;19927;-63
2023/04/10 12:45:08;;;;;;;;;;;17.70;46.60;;;;;;4951606;28;21645;-64
2023/04/10 12:47:43;;;;;;;;;;;17.70;48.00;;;;;;4951536;29;19938;-65
2023/04/10 12:50:10;;;;;;;;;;;17.70;45.90;;;;;;4949381;28;19935;-64
2023/04/10 12:52:37;;;;;;;;;;;17.70;45.80;;;;;;4951991;28;19927;-65
2023/04/10 12:55:08;;;;;;;;;;;17.70;46.10;;;;;;4953765;28;19933;-64
2023/04/10 12:57:37;;;;;;;;;;;17.80;45.20;;;;;;4952776;28;19933;-63
2023/04/10 13:00:04;;;;;;;;;;;17.70;44.60;;;;;;4951438;28;19938;-63
2023/04/10 13:02:30;;;;;;;;;;;17.70;45.10;;;;;;4948695;28;19930;-64
2023/04/10 13:04:58;;;;;;;;;;;17.70;44.60;;;;;;4950974;28;19935;-64
2023/04/10 13:07:24;;;;;;;;;;;17.70;43.90;;;;;;4950196;28;19972;-63
2023/04/10 13:09:52;;;;;;;;;;;17.70;44.10;;;;;;4953296;29;19942;-64
2023/04/10 13:12:18;;;;;;;;;;;17.70;45.10;;;;;;4950868;28;20021;-64
2023/04/10 13:14:46;;;;;;;;;;;17.70;44.50;;;;;;4953025;28;19934;-64
2023/04/10 13:17:13;;;;;;;;;;;17.80;46.80;;;;;;4951820;28;20529;-64
2023/04/10 13:19:40;;;;;;;;;;;17.80;43.90;;;;;;4952532;29;19949;-64
2023/04/10 13:22:06;;;;;;;;;;;17.80;43.90;;;;;;4952125;28;19931;-63
2023/04/10 13:24:35;;;;;;;;;;;17.80;44.30;;;;;;4949280;28;19930;-64
2023/04/10 13:27:02;;;;;;;;;;;17.80;44.10;;;;;;4950448;28;19938;-65
2023/04/10 13:29:29;;;;;;;;;;;17.80;44.20;;;;;;4950696;28;19926;-63
2023/04/10 13:31:59;;;;;;;;;;;17.80;43.90;;;;;;4951229;28;19937;-64
2023/04/10 13:34:26;;;;;;;;;;;17.80;43.60;;;;;;4950641;28;19926;-65
2023/04/10 13:36:53;;;;;;;;;;;17.80;44.10;;;;;;4947709;28;20313;-64
2023/04/10 13:39:20;;;;;;;;;;;17.80;44.00;;;;;;4949856;29;19937;-67
2023/04/10 13:41:50;;;;;;;;;;;17.70;43.90;;;;;;4950209;28;19927;-64
2023/04/10 13:44:16;;;;;;;;;;;17.70;43.90;;;;;;4950106;28;19934;-65
2023/04/10 13:46:43;;;;;;;;;;;17.70;43.10;;;;;;4950322;28;19930;-65
2023/04/10 13:49:15;;;;;;;;;;;17.70;44.20;;;;;;4950204;28;19937;-64
2023/04/10 13:51:42;;;;;;;;;;;17.70;43.80;;;;;;4949030;28;19962;-65
2023/04/10 13:54:09;;;;;;;;;;;17.70;43.90;;;;;;4949863;28;19941;-64
2023/04/10 13:56:36;;;;;;;;;;;17.70;43.70;;;;;;4948416;28;19997;-65
2023/04/10 13:59:03;;;;;;;;;;;17.60;43.50;;;;;;4951191;28;19934;-65
2023/04/10 14:01:30;;;;;;;;;;;17.60;43.50;;;;;;4949137;28;20054;-64
2023/04/10 14:03:56;;;;;;;;;;;17.60;43.30;;;;;;4950076;28;19934;-65
2023/04/10 14:06:25;;;;;;;;;;;17.60;43.80;;;;;;4949013;28;19937;-65
2023/04/10 14:08:52;;;;;;;;;;;17.60;45.00;;;;;;4948762;28;20052;-65
2023/04/10 14:11:20;;;;;;;;;;;17.60;42.50;;;;;;4959789;28;19989;-65
2023/04/10 14:13:47;;;;;;;;;;;17.60;42.10;;;;;;4949299;28;20032;-65
2023/04/10 14:16:14;;;;;;;;;;;17.50;42.00;;;;;;4949966;28;19926;-64
2023/04/10 14:18:40;;;;;;;;;;;17.50;43.20;;;;;;4950178;28;19953;-64
2023/04/10 14:21:07;;;;;;;;;;;17.50;42.70;;;;;;4950881;29;19930;-66
2023/04/10 14:23:35;;;;;;;;;;;17.50;42.30;;;;;;4951253;28;19931;-64
2023/04/10 14:26:02;;;;;;;;;;;17.50;42.50;;;;;;4951209;28;19926;-64
2023/04/10 14:28:29;;;;;;;;;;;17.60;43.00;;;;;;4946382;28;20410;-63
2023/04/10 14:30:55;;;;;;;;;;;17.50;42.90;;;;;;4950510;28;19926;-66
2023/04/10 14:33:22;;;;;;;;;;;17.50;43.70;;;;;;4949910;28;19935;-64
2023/04/10 14:35:49;;;;;;;;;;;17.50;42.50;;;;;;4950001;28;19930;-66
2023/04/10 14:38:16;;;;;;;;;;;17.40;42.90;;;;;;4950015;29;19927;-64
2023/04/10 14:40:47;;;;;;;;;;;17.40;42.30;;;;;;4950768;28;19930;-65
2023/04/10 14:43:14;;;;;;;;;;;17.40;41.90;;;;;;4945967;28;19946;-65